Time;durP1;ratioP1;P1;durP2;ratioP2;P2;SDS_P1;SDS_P2;PMS_P1;PMS_P2;Temp;Humidity;BMP_temperature;BMP_pressure;BME280_temperature;BME280_humidity;BME280_pressure;Samples;Min_cycle;Max_cycle;Signal;HPM_P1;HPM_P2
2021/11/23 00:02:24;;;;;;;109.05;55.22;;;;;;;7.09;74.30;100099.13;5069407;28;20032;-21
2021/11/23 00:04:49;;;;;;;116.35;60.22;;;;;;;7.01;74.95;100100.09;5069063;28;20033;-21
2021/11/23 00:07:15;;;;;;;135.80;68.50;;;;;;;7.50;72.82;100110.72;5050983;28;20102;-21
2021/11/23 00:09:40;;;;;;;132.63;65.93;;;;;;;7.42;72.97;100104.59;5068978;28;20036;-21
2021/11/23 00:12:06;;;;;;;136.48;65.22;;;;;;;7.43;73.61;100108.88;5068571;28;20044;-20
2021/11/23 00:14:33;;;;;;;113.63;61.75;;;;;;;7.92;72.04;100112.31;5050537;28;20071;-20
2021/11/23 00:16:58;;;;;;;115.38;60.65;;;;;;;7.02;75.11;100111.50;5068757;28;20032;-21
2021/11/23 00:19:24;;;;;;;94.97;53.20;;;;;;;6.71;76.61;100110.06;5068849;28;20416;-21
2021/11/23 00:21:49;;;;;;;99.15;51.75;;;;;;;7.42;73.70;100107.25;5068709;28;20151;-21
2021/11/23 00:24:15;;;;;;;119.47;66.78;;;;;;;7.36;73.11;100096.63;5068694;28;20044;-20
2021/11/23 00:26:40;;;;;;;167.85;82.82;;;;;;;7.02;74.44;100107.00;5068701;28;20028;-21
2021/11/23 00:29:05;;;;;;;170.63;88.63;;;;;;;7.45;73.50;100103.38;5068526;28;20029;-21
2021/11/23 00:31:31;;;;;;;147.63;71.35;;;;;;;7.61;72.95;100100.38;5050428;28;20029;-20
2021/11/23 00:33:56;;;;;;;124.80;64.45;;;;;;;7.72;73.08;100111.44;5068990;28;20503;-22
2021/11/23 00:36:22;;;;;;;153.52;77.15;;;;;;;7.71;73.57;100109.81;5050430;28;20032;-20
2021/11/23 00:38:47;;;;;;;113.80;60.75;;;;;;;7.74;73.50;100109.41;5068545;28;20036;-21
2021/11/23 00:41:17;;;;;;;104.68;57.17;;;;;;;8.09;72.11;100114.59;5068287;28;20043;-20
2021/11/23 00:43:42;;;;;;;98.55;53.65;;;;;;;8.22;71.50;100107.50;5068718;28;20036;-21
2021/11/23 00:46:08;;;;;;;88.80;50.92;;;;;;;7.85;72.73;100101.69;5068254;28;20028;-21
2021/11/23 00:48:33;;;;;;;90.05;50.25;;;;;;;7.95;72.48;100092.53;5068655;28;20029;-20
2021/11/23 00:50:59;;;;;;;81.57;47.17;;;;;;;7.84;73.18;100093.91;5068057;28;20435;-22
2021/11/23 00:53:25;;;;;;;82.07;47.63;;;;;;;8.03;72.15;100095.00;5050510;28;20024;-21
2021/11/23 00:55:50;;;;;;;80.55;47.47;;;;;;;8.32;70.85;100080.53;5068093;28;20108;-20
2021/11/23 00:58:16;;;;;;;76.30;46.33;;;;;;;8.14;71.39;100104.22;5068112;28;20115;-21
2021/11/23 01:00:42;;;;;;;78.00;45.70;;;;;;;7.75;72.48;100108.41;5068238;28;20642;-20
2021/11/23 01:03:07;;;;;;;77.60;46.08;;;;;;;7.78;72.78;100095.53;5068308;28;20048;-20
2021/11/23 01:05:33;;;;;;;75.07;44.92;;;;;;;7.92;72.35;100100.88;5068297;28;20036;-21
2021/11/23 01:07:59;;;;;;;71.28;42.72;;;;;;;7.36;73.96;100096.63;5050250;28;20472;-20
2021/11/23 01:10:25;;;;;;;86.45;44.63;;;;;;;6.96;76.03;100104.34;5067959;28;20115;-21
2021/11/23 01:12:50;;;;;;;75.80;44.05;;;;;;;6.49;78.07;100100.53;5068333;28;20093;-21
2021/11/23 01:15:16;;;;;;;80.05;44.88;;;;;;;6.42;77.68;100111.06;5068184;28;20063;-21
2021/11/23 01:17:41;;;;;;;81.43;47.03;;;;;;;6.98;76.07;100108.41;5067798;28;20025;-22
2021/11/23 01:20:08;;;;;;;75.53;46.38;;;;;;;6.48;76.13;100083.81;5068353;28;20028;-21
2021/11/23 01:22:33;;;;;;;83.55;47.40;;;;;;;6.29;78.20;100101.16;5068348;28;20582;-20
2021/11/23 01:24:59;;;;;;;77.20;46.25;;;;;;;6.83;76.31;100118.31;5067924;28;20029;-21
2021/11/23 01:27:24;;;;;;;80.15;48.15;;;;;;;6.80;75.40;100113.41;5067820;28;20029;-21
2021/11/23 01:29:50;;;;;;;84.20;46.78;;;;;;;7.29;73.68;100106.34;5068423;28;20031;-20
2021/11/23 01:32:15;;;;;;;85.22;50.17;;;;;;;7.30;73.19;100108.00;5067599;28;20689;-20
2021/11/23 01:34:41;;;;;;;96.70;52.60;;;;;;;7.30;73.47;100108.00;5067762;28;20029;-21
2021/11/23 01:37:06;;;;;;;84.00;46.25;;;;;;;6.64;75.17;100109.22;5068170;28;20119;-21
2021/11/23 01:39:32;;;;;;;84.28;48.75;;;;;;;6.82;74.89;100100.75;5067753;28;20089;-20
2021/11/23 01:41:58;;;;;;;83.63;49.78;;;;;;;6.67;76.45;100106.16;5068058;28;20024;-21
2021/11/23 01:44:23;;;;;;;88.22;50.85;;;;;;;6.30;78.07;100094.06;5049439;28;20058;-21
2021/11/23 01:46:49;;;;;;;82.68;50.17;;;;;;;6.64;77.92;100111.88;5067915;28;20478;-21
2021/11/23 01:49:14;;;;;;;87.88;51.70;;;;;;;6.44;77.57;100104.56;5067602;28;20025;-21
2021/11/23 01:51:40;;;;;;;81.40;47.63;;;;;;;6.51;77.94;100106.44;5067744;28;20126;-21
2021/11/23 01:54:05;;;;;;;75.55;46.67;;;;;;;7.04;76.26;100098.88;5071456;28;20032;-22
2021/11/23 01:56:31;;;;;;;79.15;45.72;;;;;;;6.87;76.43;100108.16;5071737;28;20032;-21
2021/11/23 01:58:56;;;;;;;83.40;47.88;;;;;;;7.05;74.54;100087.28;5053638;28;20033;-20
2021/11/23 02:01:22;;;;;;;82.38;48.45;;;;;;;6.92;76.09;100101.25;5071316;28;20066;-20
2021/11/23 02:03:48;;;;;;;88.47;49.60;;;;;;;7.12;75.95;100096.06;5071588;28;20161;-20
2021/11/23 02:06:14;;;;;;;77.35;47.88;;;;;;;7.33;74.22;100102.28;5071139;28;20043;-21
2021/11/23 02:08:39;;;;;;;84.63;48.50;;;;;;;7.18;74.39;100105.09;5071332;28;20505;-21
2021/11/23 02:11:05;;;;;;;85.13;49.60;;;;;;;7.31;74.53;100104.31;5071171;28;20476;-20
2021/11/23 02:13:31;;;;;;;91.35;52.90;;;;;;;6.68;77.03;100096.38;5070919;28;20114;-21
2021/11/23 02:15:57;;;;;;;94.65;53.35;;;;;;;6.19;79.95;100106.78;5053050;28;20165;-20
2021/11/23 02:18:23;;;;;;;90.00;50.30;;;;;;;6.60;78.50;100094.72;5070775;28;20047;-21
2021/11/23 02:20:49;;;;;;;95.60;52.95;;;;;;;6.60;77.32;100081.47;5070972;28;20028;-20
2021/11/23 02:23:15;;;;;;;99.70;55.28;;;;;;;6.56;77.79;100088.13;5071313;28;20396;-21
2021/11/23 02:25:42;;;;;;;98.60;55.00;;;;;;;6.59;78.37;100095.72;5070733;28;20059;-20
2021/11/23 02:28:08;;;;;;;95.20;56.17;;;;;;;7.01;76.64;100099.28;5070664;28;20028;-21
2021/11/23 02:30:44;;;;;;;92.68;55.55;;;;;;;6.74;77.48;100096.44;5070688;28;20044;-21
2021/11/23 02:33:09;;;;;;;92.38;53.72;;;;;;;7.06;76.23;100101.34;5070977;28;20040;-21
2021/11/23 02:35:35;;;;;;;91.95;55.10;;;;;;;7.23;74.50;100095.53;5070797;28;20024;-21
2021/11/23 02:38:01;;;;;;;91.80;51.95;;;;;;;7.21;74.42;100084.31;5070689;28;20078;-21
2021/11/23 02:40:26;;;;;;;91.22;52.55;;;;;;;7.22;74.34;100083.28;5070638;28;20453;-21
2021/11/23 02:42:52;;;;;;;84.60;51.55;;;;;;;7.19;74.66;100091.63;5070618;28;20024;-20
2021/11/23 02:45:19;;;;;;;89.53;50.35;;;;;;;7.24;74.17;100089.19;5070870;28;20459;-21
2021/11/23 02:47:45;;;;;;;86.97;50.65;;;;;;;7.27;74.48;100097.78;5052416;28;20024;-21
2021/11/23 02:50:12;;;;;;;93.13;51.60;;;;;;;7.40;73.38;100093.38;5070351;28;20047;-21
2021/11/23 02:52:38;;;;;;;89.05;51.40;;;;;;;7.52;72.50;100080.34;5070699;28;20028;-21
2021/11/23 02:55:04;;;;;;;96.03;52.20;;;;;;;7.45;73.22;100079.50;5070319;28;20765;-21
2021/11/23 02:57:31;;;;;;;90.57;51.88;;;;;;;7.59;73.28;100102.41;5070370;28;20512;-21
2021/11/23 02:59:56;;;;;;;86.10;51.50;;;;;;;7.58;72.87;100084.88;5070450;28;20085;-20
2021/11/23 03:02:22;;;;;;;89.10;51.38;;;;;;;7.34;74.14;100104.75;5070470;28;20111;-20
2021/11/23 03:04:55;;;;;;;85.55;49.40;;;;;;;6.89;75.52;100082.28;5070277;28;20209;-23
2021/11/23 03:07:20;;;;;;;90.20;49.40;;;;;;;7.20;75.35;100097.75;5052281;28;20032;-20
2021/11/23 03:09:46;;;;;;;91.85;51.85;;;;;;;7.27;74.80;100103.09;5035570;28;20032;-20
2021/11/23 03:12:23;;;;;;;87.30;49.10;;;;;;;7.10;75.04;100076.88;5035323;28;20040;-22
2021/11/23 03:14:49;;;;;;;91.72;51.70;;;;;;;7.16;75.24;100092.00;5070053;28;20060;-21
2021/11/23 03:17:16;;;;;;;82.05;48.95;;;;;;;6.97;76.50;100103.34;5070286;28;20051;-20
2021/11/23 03:19:42;;;;;;;88.55;49.22;;;;;;;7.29;74.92;100093.09;5070275;28;20031;-21
2021/11/23 03:22:08;;;;;;;90.28;51.83;;;;;;;7.17;75.11;100106.94;5069706;28;20481;-22
2021/11/23 03:24:34;;;;;;;82.32;50.13;;;;;;;6.97;75.80;100101.50;5052268;28;20033;-20
2021/11/23 03:26:59;;;;;;;85.03;49.42;;;;;;;7.08;75.33;100086.88;5051998;28;20024;-21
2021/11/23 03:29:25;;;;;;;80.47;49.60;;;;;;;7.40;74.59;100100.50;5069791;28;20032;-20
2021/11/23 03:31:50;;;;;;;77.72;46.17;;;;;;;7.49;73.88;100103.81;5069756;28;20033;-21
2021/11/23 03:34:16;;;;;;;72.95;45.10;;;;;;;7.40;74.00;100103.97;5069316;28;20039;-20
2021/11/23 03:36:42;;;;;;;80.85;47.22;;;;;;;7.46;73.34;100091.75;5069587;28;20082;-21
2021/11/23 03:39:07;;;;;;;69.25;42.80;;;;;;;7.18;74.31;100083.88;5069506;28;20488;-21
2021/11/23 03:41:34;;;;;;;73.18;43.08;;;;;;;7.18;74.51;100092.63;5069430;28;20016;-21
2021/11/23 03:43:59;;;;;;;73.40;42.58;;;;;;;7.29;74.58;100103.69;5069505;28;20043;-22
2021/11/23 03:46:25;;;;;;;74.93;43.50;;;;;;;7.21;74.69;100089.59;5069296;28;20028;-20
2021/11/23 03:48:52;;;;;;;73.78;42.83;;;;;;;6.89;75.09;100101.66;5069513;28;20478;-20
2021/11/23 03:51:18;;;;;;;74.50;43.83;;;;;;;6.71;76.26;100104.78;5069109;28;20029;-21
2021/11/23 03:53:44;;;;;;;76.53;46.83;;;;;;;6.67;75.68;100097.41;5069367;28;20029;-21
2021/11/23 03:56:10;;;;;;;74.80;45.88;;;;;;;7.29;73.11;100111.66;5068885;28;20039;-21
2021/11/23 03:58:35;;;;;;;77.90;46.60;;;;;;;7.18;73.51;100103.25;5051262;28;20056;-21
2021/11/23 04:01:01;;;;;;;76.32;47.72;;;;;;;6.93;73.95;100102.09;5069089;28;20027;-20
2021/11/23 04:03:26;;;;;;;82.15;48.05;;;;;;;7.01;73.66;100109.88;5051084;28;20033;-20
2021/11/23 04:05:51;;;;;;;83.93;48.92;;;;;;;7.14;73.63;100099.34;5069296;28;20039;-22
2021/11/23 04:08:20;;;;;;;83.90;49.55;;;;;;;6.99;74.20;100101.31;5069001;28;20032;-21
2021/11/23 04:10:45;;;;;;;85.95;49.50;;;;;;;7.02;74.28;100112.31;5068808;28;20032;-21
2021/11/23 04:13:11;;;;;;;89.63;51.58;;;;;;;6.88;74.72;100120.38;5069086;28;20397;-21
2021/11/23 04:15:36;;;;;;;83.05;50.22;;;;;;;6.53;76.57;100112.38;5068020;28;20594;-21
2021/11/23 04:18:02;;;;;;;83.18;50.17;;;;;;;6.11;77.94;100104.25;5068988;28;20075;-21
2021/11/23 04:20:27;;;;;;;76.78;45.92;;;;;;;5.94;79.11;100130.09;5068330;28;20028;-21
2021/11/23 04:22:53;;;;;;;75.80;45.17;;;;;;;5.77;79.20;100123.41;5068601;28;20036;-20
2021/11/23 04:25:18;;;;;;;80.55;47.47;;;;;;;5.77;80.03;100131.34;5068921;28;20032;-20
2021/11/23 04:27:44;;;;;;;80.32;47.25;;;;;;;5.83;80.14;100117.38;5069257;28;20029;-22
2021/11/23 04:30:11;;;;;;;84.22;52.72;;;;;;;6.06;78.41;100109.28;5068470;28;20029;-21
2021/11/23 04:32:36;;;;;;;81.88;49.63;;;;;;;6.07;79.35;100121.53;5067769;28;20035;-20
2021/11/23 04:35:03;;;;;;;84.60;52.38;;;;;;;6.86;76.15;100123.22;5068011;28;20032;-21
2021/11/23 04:37:28;;;;;;;197.10;94.22;;;;;;;6.63;76.13;100096.97;5068467;28;20560;-20
2021/11/23 04:39:54;;;;;;;144.77;74.97;;;;;;;7.11;75.19;100113.00;5050643;28;20480;-21
2021/11/23 04:42:19;;;;;;;125.55;65.78;;;;;;;7.23;73.93;100110.59;5068102;28;20028;-20
2021/11/23 04:44:45;;;;;;;98.10;57.22;;;;;;;7.39;73.14;100110.28;5068420;28;20028;-21
2021/11/23 04:47:10;;;;;;;108.82;61.30;;;;;;;7.37;73.04;100099.03;5050477;28;20024;-21
2021/11/23 04:49:36;;;;;;;139.73;73.60;;;;;;;7.42;73.02;100117.06;5050517;28;20404;-20
2021/11/23 04:52:01;;;;;;;159.90;81.63;;;;;;;7.28;73.33;100099.44;5068185;28;20028;-20
2021/11/23 04:54:27;;;;;;;146.85;75.93;;;;;;;7.42;73.35;100106.44;5068086;28;20426;-21
2021/11/23 04:56:52;;;;;;;127.63;68.22;;;;;;;7.43;73.37;100113.38;5068300;28;20110;-20
2021/11/23 04:59:18;;;;;;;126.90;64.85;;;;;;;7.56;73.30;100118.75;5068183;28;20028;-20
2021/11/23 05:01:43;;;;;;;110.30;59.85;;;;;;;7.38;73.82;100115.81;5068444;28;20443;-21
2021/11/23 05:04:08;;;;;;;141.30;72.15;;;;;;;6.94;75.67;100103.72;5067977;28;20032;-22
2021/11/23 05:06:34;;;;;;;135.35;69.82;;;;;;;7.17;75.14;100122.84;5068396;28;20036;-21
2021/11/23 05:09:00;;;;;;;123.00;67.28;;;;;;;7.47;74.14;100122.56;5068210;28;20041;-21
2021/11/23 05:11:27;;;;;;;126.30;69.35;;;;;;;7.29;74.29;100132.88;5068270;28;20167;-20
2021/11/23 05:13:53;;;;;;;106.20;58.70;;;;;;;6.95;75.58;100121.28;5067956;28;20040;-21
2021/11/23 05:16:18;;;;;;;100.60;56.35;;;;;;;7.18;75.40;100127.13;5067748;28;20094;-21
2021/11/23 05:18:45;;;;;;;100.70;57.38;;;;;;;7.59;73.86;100128.13;5067919;28;20032;-21
2021/11/23 05:21:11;;;;;;;93.68;52.28;;;;;;;6.95;75.98;100129.22;5068200;28;20107;-21
2021/11/23 05:23:36;;;;;;;103.05;57.17;;;;;;;6.88;76.59;100133.63;5068099;28;20043;-21
2021/11/23 05:26:02;;;;;;;104.25;59.40;;;;;;;7.12;75.02;100122.59;5068741;28;20028;-21
2021/11/23 05:28:27;;;;;;;104.85;57.55;;;;;;;7.56;73.75;100137.31;5071827;28;20036;-21
2021/11/23 05:30:53;;;;;;;108.38;58.63;;;;;;;7.72;73.13;100136.16;5072004;28;20432;-20
2021/11/23 05:33:18;;;;;;;98.43;58.25;;;;;;;7.73;73.32;100134.34;5070975;28;20076;-20
2021/11/23 05:35:49;;;;;;;89.45;53.45;;;;;;;7.76;72.96;100139.22;5054017;28;20555;-21
2021/11/23 05:38:14;;;;;;;84.60;48.55;;;;;;;7.04;75.47;100120.09;5071769;28;20460;-21
2021/11/23 05:40:41;;;;;;;86.68;51.80;;;;;;;6.76;77.83;100139.50;5071830;28;20032;-20
2021/11/23 05:43:06;;;;;;;107.40;57.35;;;;;;;7.23;76.80;100132.66;5071956;28;20058;-20
2021/11/23 05:45:32;;;;;;;93.70;54.15;;;;;;;7.57;74.84;100133.63;5071762;28;20024;-20
2021/11/23 05:47:57;;;;;;;89.43;54.72;;;;;;;7.68;74.04;100134.09;5053753;28;20488;-21
2021/11/23 05:50:23;;;;;;;86.63;50.80;;;;;;;7.90;73.29;100156.84;5071304;28;20039;-20
2021/11/23 05:52:48;;;;;;;85.30;52.50;;;;;;;8.04;73.25;100163.03;5070213;28;20036;-21
2021/11/23 05:55:14;;;;;;;88.78;51.92;;;;;;;7.95;73.49;100164.25;5071722;28;20036;-24
2021/11/23 05:57:39;;;;;;;90.70;51.70;;;;;;;7.67;75.22;100166.97;5071734;28;20032;-22
2021/11/23 06:00:05;;;;;;;84.93;52.08;;;;;;;7.72;75.09;100169.84;5071403;28;20507;-21
2021/11/23 06:02:31;;;;;;;88.32;51.20;;;;;;;7.84;74.50;100165.59;5071188;28;20101;-20
2021/11/23 06:04:59;;;;;;;79.78;47.85;;;;;;;7.91;74.15;100169.13;5053404;28;20028;-21
2021/11/23 06:07:24;;;;;;;81.10;47.08;;;;;;;7.93;74.40;100172.41;5071317;28;20047;-21
2021/11/23 06:09:50;;;;;;;76.80;47.03;;;;;;;7.87;74.97;100188.28;5053345;28;20040;-20
2021/11/23 06:12:15;;;;;;;71.97;43.83;;;;;;;7.97;75.34;100200.19;5052698;28;20419;-21
2021/11/23 06:14:41;;;;;;;77.70;42.13;;;;;;;8.15;74.67;100194.34;5070893;28;20109;-21
2021/11/23 06:17:09;;;;;;;69.22;41.30;;;;;;;8.07;74.79;100183.88;5070774;28;20036;-21
2021/11/23 06:19:34;;;;;;;68.13;43.38;;;;;;;8.12;74.98;100197.38;5071026;28;20056;-20
2021/11/23 06:22:00;;;;;;;66.30;41.13;;;;;;;8.07;75.11;100183.03;5070985;28;20029;-20
2021/11/23 06:24:26;;;;;;;69.10;42.80;;;;;;;7.99;76.02;100203.47;5052894;28;20029;-21
2021/11/23 06:26:51;;;;;;;67.43;43.80;;;;;;;8.18;75.38;100199.22;5070912;28;20047;-21
2021/11/23 06:29:16;;;;;;;72.18;43.33;;;;;;;8.05;76.07;100205.34;5071031;28;20040;-21
2021/11/23 06:31:42;;;;;;;73.25;43.13;;;;;;;7.97;76.09;100207.34;5070622;28;20028;-21
2021/11/23 06:34:09;;;;;;;72.10;43.67;;;;;;;8.25;75.92;100217.84;5070777;28;20507;-22
2021/11/23 06:36:35;;;;;;;69.53;43.38;;;;;;;8.41;75.01;100219.34;5070348;28;20032;-21
2021/11/23 06:39:05;;;;;;;70.18;44.53;;;;;;;8.10;75.68;100203.91;5070145;28;20107;-21
2021/11/23 06:41:30;;;;;;;86.90;49.60;;;;;;;8.09;76.66;100218.19;5070586;28;20532;-21
2021/11/23 06:43:56;;;;;;;84.90;50.38;;;;;;;8.13;76.81;100214.13;5071092;28;20520;-21
2021/11/23 06:46:22;;;;;;;86.93;51.25;;;;;;;8.02;77.48;100216.34;5052664;28;20028;-21
2021/11/23 06:48:47;;;;;;;80.15;48.00;;;;;;;8.26;75.96;100224.81;5070536;28;20393;-22
2021/11/23 06:51:13;;;;;;;68.10;44.47;;;;;;;8.37;75.26;100232.19;5070684;28;20048;-21
2021/11/23 06:53:38;;;;;;;73.18;45.13;;;;;;;8.27;75.83;100215.00;5070827;28;20090;-20
2021/11/23 06:56:04;;;;;;;69.72;42.30;;;;;;;8.34;76.25;100221.97;5070478;28;20416;-20
2021/11/23 06:58:29;;;;;;;69.22;43.75;;;;;;;8.29;77.04;100228.91;5070228;28;20032;-20
2021/11/23 07:00:55;;;;;;;70.28;42.95;;;;;;;8.40;77.01;100223.81;5070321;28;20028;-21
2021/11/23 07:03:20;;;;;;;71.63;45.50;;;;;;;8.51;76.93;100226.94;5070277;28;20040;-21
2021/11/23 07:05:46;;;;;;;80.60;47.85;;;;;;;8.82;76.94;100240.47;5070222;28;20059;-21
2021/11/23 07:08:11;;;;;;;76.53;46.78;;;;;;;9.00;77.25;100241.75;5069993;28;20029;-21
2021/11/23 07:10:38;;;;;;;78.65;46.58;;;;;;;9.09;77.64;100237.03;5070301;28;20094;-21
2021/11/23 07:13:04;;;;;;;85.65;47.78;;;;;;;9.11;76.35;100238.44;5070017;28;20074;-21
2021/11/23 07:15:29;;;;;;;76.80;47.45;;;;;;;9.06;75.99;100246.25;5069798;28;20060;-20
2021/11/23 07:17:55;;;;;;;70.38;44.60;;;;;;;9.06;75.76;100251.56;5070150;28;20028;-20
2021/11/23 07:20:21;;;;;;;66.88;41.58;;;;;;;9.15;75.46;100237.03;5069516;28;20090;-21
2021/11/23 07:22:46;;;;;;;65.88;41.15;;;;;;;9.25;74.93;100256.06;5069832;28;20523;-20
2021/11/23 07:25:12;;;;;;;70.18;42.78;;;;;;;9.18;75.91;100251.78;5069902;28;20039;-20
2021/11/23 07:27:37;;;;;;;71.05;42.33;;;;;;;9.12;75.67;100242.75;5070049;28;20029;-21
2021/11/23 07:30:05;;;;;;;63.28;40.22;;;;;;;9.33;75.29;100251.56;5069729;28;20035;-20
2021/11/23 07:32:30;;;;;;;67.40;41.22;;;;;;;9.20;76.50;100263.03;5069567;28;20032;-20
2021/11/23 07:34:56;;;;;;;67.05;41.58;;;;;;;9.47;75.38;100255.03;5069518;28;20400;-21
2021/11/23 07:37:21;;;;;;;69.82;42.03;;;;;;;9.47;75.30;100255.03;5069501;28;20037;-20
2021/11/23 07:39:47;;;;;;;62.97;40.53;;;;;;;9.61;74.47;100238.81;5069849;28;20032;-21
2021/11/23 07:42:13;;;;;;;69.93;43.10;;;;;;;9.75;73.30;100257.44;5069228;28;20032;-21
2021/11/23 07:44:39;;;;;;;73.68;44.17;;;;;;;9.76;73.97;100264.38;5069609;28;20063;-20
2021/11/23 07:47:04;;;;;;;76.15;43.00;;;;;;;9.74;75.36;100263.78;5069409;28;20025;-21
2021/11/23 07:49:30;;;;;;;60.83;40.85;;;;;;;9.97;73.81;100274.78;5068955;28;20059;-21
2021/11/23 07:51:55;;;;;;;71.43;43.70;;;;;;;10.20;72.63;100281.47;5069019;28;20074;-21
2021/11/23 07:54:21;;;;;;;68.65;43.20;;;;;;;10.01;73.46;100267.19;5069187;28;20024;-20
2021/11/23 07:56:46;;;;;;;70.28;45.25;;;;;;;10.05;73.74;100287.88;5069143;28;20029;-21
2021/11/23 07:59:12;;;;;;;68.38;42.97;;;;;;;10.18;73.38;100294.22;5069300;28;20511;-21
2021/11/23 08:01:38;;;;;;;72.68;43.15;;;;;;;10.38;72.97;100297.63;5069184;28;20029;-21
2021/11/23 08:04:04;;;;;;;68.82;42.83;;;;;;;10.36;73.20;100296.19;5068897;28;20028;-20
2021/11/23 08:06:29;;;;;;;70.50;43.30;;;;;;;10.48;72.33;100299.03;5068882;28;20071;-21
2021/11/23 08:08:55;;;;;;;73.13;47.00;;;;;;;10.32;73.12;100292.31;5069196;28;20478;-21
2021/11/23 08:11:20;;;;;;;73.72;44.85;;;;;;;10.51;73.01;100295.94;5068940;28;20032;-21
2021/11/23 08:13:46;;;;;;;68.55;44.05;;;;;;;10.64;72.38;100302.03;5069337;28;20463;-21
2021/11/23 08:16:11;;;;;;;73.60;43.08;;;;;;;10.74;71.14;100306.88;5050414;28;20052;-21
2021/11/23 08:18:37;;;;;;;66.00;42.97;;;;;;;10.59;71.49;100298.38;5068716;28;20037;-20
2021/11/23 08:21:03;;;;;;;63.75;41.05;;;;;;;10.55;71.48;100278.50;5068696;28;20386;-21
2021/11/23 08:23:28;;;;;;;63.95;41.55;;;;;;;10.59;71.69;100288.50;5068808;28;20032;-21
2021/11/23 08:25:54;;;;;;;67.43;42.13;;;;;;;10.92;72.16;100281.34;5050655;28;20420;-21
2021/11/23 08:28:22;;;;;;;67.88;42.30;;;;;;;10.91;71.48;100288.53;5068309;28;20127;-20
2021/11/23 08:30:48;;;;;;;64.25;41.05;;;;;;;11.16;70.09;100275.22;5068842;28;20032;-21
2021/11/23 08:33:14;;;;;;;60.85;38.95;;;;;;;11.56;69.09;100277.50;5068390;28;20031;-21
2021/11/23 08:35:39;;;;;;;58.80;39.28;;;;;;;11.50;69.33;100283.72;5068836;28;20063;-20
2021/11/23 08:38:05;;;;;;;60.25;39.17;;;;;;;11.56;68.26;100269.50;5068435;28;20452;-21
2021/11/23 08:40:30;;;;;;;58.95;38.03;;;;;;;11.82;66.92;100287.13;5068788;28;20103;-21
2021/11/23 08:42:57;;;;;;;58.15;37.55;;;;;;;11.73;67.41;100288.47;5050349;28;20036;-20
2021/11/23 08:45:22;;;;;;;56.90;37.67;;;;;;;11.89;67.10;100289.78;5068610;28;20032;-21
2021/11/23 08:47:48;;;;;;;55.25;37.95;;;;;;;11.47;67.42;100273.50;5068275;28;20029;-21
2021/11/23 08:50:13;;;;;;;59.95;38.90;;;;;;;11.85;66.65;100288.56;5068192;28;20032;-21
2021/11/23 08:52:39;;;;;;;60.03;39.97;;;;;;;11.92;67.80;100289.31;5068197;28;20030;-20
2021/11/23 08:55:05;;;;;;;65.57;41.08;;;;;;;12.27;67.00;100289.53;5068398;28;20029;-20
2021/11/23 08:57:31;;;;;;;57.70;36.70;;;;;;;12.21;66.16;100289.63;5068375;28;20024;-20
2021/11/23 09:00:09;;;;;;;57.75;37.78;;;;;;;12.10;66.53;100285.03;5068364;28;20082;-22
2021/11/23 09:02:34;;;;;;;;;;;;;;;12.00;66.37;100288.22;5068312;28;20112;-21
2021/11/23 09:05:00;;;;;;;59.38;37.95;;;;;;;11.69;67.08;100287.28;5068410;28;20006;-21
2021/11/23 09:07:26;;;;;;;51.83;34.17;;;;;;;11.61;68.22;100291.03;5068525;28;20036;-20
2021/11/23 09:09:51;;;;;;;51.92;34.85;;;;;;;11.69;68.17;100286.44;5068022;28;20024;-21
2021/11/23 09:12:18;;;;;;;57.80;38.30;;;;;;;11.58;68.71;100288.81;5067560;28;20040;-20
2021/11/23 09:14:43;;;;;;;57.13;36.97;;;;;;;11.70;67.84;100288.91;5068023;28;20068;-20
2021/11/23 09:17:09;;;;;;;56.83;36.92;;;;;;;11.61;67.75;100285.69;5067691;28;20036;-20
2021/11/23 09:19:35;;;;;;;59.25;37.08;;;;;;;11.67;68.44;100302.72;5068179;28;20059;-20
2021/11/23 09:22:01;;;;;;;55.63;36.75;;;;;;;11.39;68.61;100313.84;5068138;28;20028;-21
2021/11/23 09:24:26;;;;;;;56.58;37.28;;;;;;;11.40;69.26;100307.44;5067890;28;20107;-21
2021/11/23 09:26:52;;;;;;;58.42;37.90;;;;;;;11.45;69.27;100308.44;5068160;28;20032;-21
2021/11/23 09:29:19;;;;;;;57.70;37.40;;;;;;;11.35;69.00;100288.63;5068127;28;20039;-21
2021/11/23 09:31:44;;;;;;;58.35;37.45;;;;;;;11.37;69.59;100300.69;5067733;28;20032;-21
2021/11/23 09:34:11;;;;;;;55.85;36.42;;;;;;;11.52;69.40;100299.56;5049716;28;20139;-21
2021/11/23 09:36:37;;;;;;;61.83;39.50;;;;;;;11.63;69.08;100299.66;5067873;28;20043;-21
2021/11/23 09:39:03;;;;;;;58.60;40.08;;;;;;;11.73;69.09;100285.81;5067771;28;20048;-21
2021/11/23 09:41:29;;;;;;;62.88;39.35;;;;;;;11.72;69.66;100291.34;5067767;28;20025;-21
2021/11/23 09:43:54;;;;;;;58.22;41.33;;;;;;;11.72;69.87;100286.81;5067848;28;20037;-20
2021/11/23 09:46:20;;;;;;;64.00;38.65;;;;;;;11.74;69.79;100279.41;5067404;28;20036;-21
2021/11/23 09:48:46;;;;;;;65.05;40.50;;;;;;;11.66;70.56;100272.47;5067839;28;20037;-21
2021/11/23 09:51:25;;;;;;;59.05;40.30;;;;;;;11.74;69.62;100265.22;5067912;28;20029;-21
2021/11/23 09:53:51;;;;;;;60.08;39.40;;;;;;;11.92;69.75;100273.28;5067695;28;20055;-20
2021/11/23 09:56:17;;;;;;;63.40;39.28;;;;;;;11.58;70.05;100258.59;5049478;28;20028;-20
2021/11/23 09:58:42;;;;;;;61.90;40.65;;;;;;;11.71;70.77;100268.34;5067829;28;20480;-21
2021/11/23 10:01:09;;;;;;;64.88;40.80;;;;;;;11.92;70.37;100270.63;5049782;28;20028;-20
2021/11/23 10:03:35;;;;;;;68.65;42.13;;;;;;;11.98;70.76;100276.94;5067625;28;20084;-21
2021/11/23 10:06:19;;;;;;;65.10;42.88;;;;;;;11.86;69.85;100279.50;5067510;28;20100;-20
2021/11/23 10:08:45;;;;;;;66.22;43.33;;;;;;;11.84;70.79;100268.22;5051052;28;20056;-20
2021/11/23 10:11:12;;;;;;;65.03;43.70;;;;;;;11.86;70.60;100260.78;5067433;28;20031;-21
2021/11/23 10:13:42;;;;;;;67.68;44.25;;;;;;;12.13;69.17;100273.88;5051020;28;20044;-21
2021/11/23 10:16:08;;;;;;;61.05;40.03;;;;;;;12.13;69.77;100276.56;5070616;28;20044;-21
2021/11/23 10:18:33;;;;;;;65.13;42.42;;;;;;;12.14;69.38;100272.84;5071183;28;20099;-20
2021/11/23 10:21:00;;;;;;;66.03;45.28;;;;;;;12.06;70.38;100266.75;5070947;28;20032;-21
2021/11/23 10:23:26;;;;;;;66.10;41.40;;;;;;;12.03;69.02;100272.56;5071163;28;20043;-21
2021/11/23 10:25:54;;;;;;;58.05;39.70;;;;;;;12.11;69.27;100274.09;5070928;28;20533;-21
2021/11/23 10:28:21;;;;;;;62.80;40.20;;;;;;;12.23;69.46;100268.81;5070994;28;20510;-20
2021/11/23 10:30:47;;;;;;;58.33;38.55;;;;;;;12.20;68.94;100250.56;5070836;28;20033;-22
2021/11/23 10:33:14;;;;;;;62.28;40.83;;;;;;;12.44;68.79;100264.84;5064674;28;20510;-22
2021/11/23 10:35:40;;;;;;;56.70;38.55;;;;;;;12.62;68.31;100269.34;5059106;28;20124;-23
2021/11/23 10:38:08;;;;;;;60.35;38.88;;;;;;;12.57;67.72;100262.00;5043910;28;20025;-21
2021/11/23 10:40:33;;;;;;;;;;;;;;;12.66;67.48;100263.28;5061006;28;20028;-22
2021/11/23 10:43:05;;;;;;;52.88;34.97;;;;;;;12.64;66.86;100261.91;5059447;28;19924;-21
2021/11/23 10:45:44;;;;;;;55.42;34.65;;;;;;;12.52;66.93;100247.66;5050631;28;20497;-21
2021/11/23 10:48:11;;;;;;;54.53;37.10;;;;;;;12.26;68.14;100245.13;5050366;28;20029;-21
2021/11/23 10:50:37;;;;;;;61.53;40.58;;;;;;;12.49;68.68;100265.00;5050368;28;20410;-21
2021/11/23 10:53:08;;;;;;;51.78;35.28;;;;;;;12.74;67.65;100272.88;5060319;28;20028;-20
2021/11/23 10:55:36;;;;;;;53.75;36.60;;;;;;;12.94;67.04;100267.22;5059369;28;20119;-20
2021/11/23 10:58:03;;;;;;;52.28;33.47;;;;;;;12.96;65.99;100270.50;5061736;28;20039;-21
2021/11/23 11:00:30;;;;;;;44.70;31.98;;;;;;;12.86;66.05;100260.34;5065981;28;20107;-21
2021/11/23 11:03:01;;;;;;;44.13;30.73;;;;;;;12.91;67.84;100258.84;5062894;28;20028;-21
2021/11/23 11:05:28;;;;;;;43.38;29.30;;;;;;;12.55;66.74;100255.25;5070298;28;20510;-21
2021/11/23 11:07:55;;;;;;;41.75;28.33;;;;;;;12.54;67.17;100253.59;5070372;28;20058;-21
2021/11/23 11:10:21;;;;;;;45.25;29.52;;;;;;;12.67;66.80;100256.09;5069916;28;20119;-20